Time;durP1;ratioP1;P1;durP2;ratioP2;P2;SDS_P1;SDS_P2;PMS_P1;PMS_P2;Temp;Humidity;BMP_temperature;BMP_pressure;BME280_temperature;BME280_humidity;BME280_pressure;Samples;Min_cycle;Max_cycle;Signal;HPM_P1;HPM_P2
2024/02/04 00:00:24;;;;;;;;;;;3.40;99.90;;;;;;5054097;28;20011;-64
2024/02/04 00:02:51;;;;;;;;;;;3.50;99.90;;;;;;5055934;28;19929;-64
2024/02/04 00:05:18;;;;;;;;;;;3.50;99.90;;;;;;5061236;28;19978;-66
2024/02/04 00:07:45;;;;;;;;;;;3.50;99.90;;;;;;5065880;28;19924;-63
2024/02/04 00:10:12;;;;;;;;;;;3.50;99.90;;;;;;5052356;28;19932;-67
2024/02/04 00:12:39;;;;;;;;;;;3.60;99.90;;;;;;5055264;28;19929;-61
2024/02/04 00:15:06;;;;;;;;;;;3.60;99.90;;;;;;5057076;28;19924;-63
2024/02/04 00:17:33;;;;;;;;;;;3.60;99.90;;;;;;5055213;28;19932;-59
2024/02/04 00:20:01;;;;;;;;;;;3.60;99.90;;;;;;5051452;28;19952;-61
2024/02/04 00:22:28;;;;;;;;;;;3.60;99.90;;;;;;5047839;28;19952;-59
2024/02/04 00:24:54;;;;;;;;;;;3.60;99.90;;;;;;5055230;28;20448;-59
2024/02/04 00:27:21;;;;;;;;;;;3.60;99.90;;;;;;5059786;28;19924;-59
2024/02/04 00:29:49;;;;;;;;;;;3.70;99.90;;;;;;5044850;28;19951;-66
2024/02/04 00:32:15;;;;;;;;;;;3.70;99.90;;;;;;5057472;28;20006;-62
2024/02/04 00:34:42;;;;;;;;;;;3.70;99.90;;;;;;5070876;28;19995;-62
2024/02/04 00:37:09;;;;;;;;;;;3.70;99.90;;;;;;5039492;28;19925;-64
2024/02/04 00:39:36;;;;;;;;;;;3.70;99.90;;;;;;5059750;28;19951;-59
2024/02/04 00:42:03;;;;;;;;;;;3.70;99.90;;;;;;5064624;28;19924;-60
2024/02/04 00:44:30;;;;;;;;;;;3.80;99.90;;;;;;5062371;28;19979;-66
2024/02/04 00:46:57;;;;;;;;;;;3.80;99.90;;;;;;5077182;28;20313;-60
2024/02/04 00:49:25;;;;;;;;;;;3.80;99.90;;;;;;5067836;28;19932;-64
2024/02/04 00:51:53;;;;;;;;;;;3.80;99.90;;;;;;5059111;28;19924;-65
2024/02/04 00:54:20;;;;;;;;;;;3.80;99.90;;;;;;5057284;28;19925;-64
2024/02/04 00:56:46;;;;;;;;;;;3.80;99.90;;;;;;5055809;28;19925;-64
2024/02/04 00:59:14;;;;;;;;;;;3.80;99.90;;;;;;5071550;28;20370;-64
2024/02/04 01:01:42;;;;;;;;;;;3.80;99.90;;;;;;5064171;28;19931;-62
2024/02/04 01:04:09;;;;;;;;;;;3.70;99.90;;;;;;5055329;28;19975;-60
2024/02/04 01:06:36;;;;;;;;;;;3.80;99.90;;;;;;5057479;28;20302;-72
2024/02/04 01:09:22;;;;;;;;;;;3.80;99.90;;;;;;5061766;28;19960;-62
2024/02/04 01:11:49;;;;;;;;;;;3.80;99.90;;;;;;5060086;28;19935;-64
2024/02/04 01:14:15;;;;;;;;;;;3.80;99.90;;;;;;5059374;28;19978;-64
2024/02/04 01:16:42;;;;;;;;;;;3.80;99.90;;;;;;5055308;28;19925;-59
2024/02/04 01:19:09;;;;;;;;;;;3.80;99.90;;;;;;5057104;28;19925;-61
2024/02/04 01:21:36;;;;;;;;;;;3.80;99.90;;;;;;5062048;28;20278;-59
2024/02/04 01:24:03;;;;;;;;;;;3.80;99.90;;;;;;5057682;28;19925;-59
2024/02/04 01:26:30;;;;;;;;;;;3.80;99.90;;;;;;5063267;28;19924;-62
2024/02/04 01:28:56;;;;;;;;;;;3.80;99.90;;;;;;5064285;28;19935;-60
2024/02/04 01:31:23;;;;;;;;;;;3.80;99.90;;;;;;5057504;28;19924;-68
2024/02/04 01:33:50;;;;;;;;;;;3.80;99.90;;;;;;5056884;28;19995;-65
2024/02/04 01:36:17;;;;;;;;;;;3.80;99.90;;;;;;5056147;28;20443;-60
2024/02/04 01:38:44;;;;;;;;;;;3.80;99.90;;;;;;5055898;28;20043;-59
2024/02/04 01:41:11;;;;;;;;;;;3.80;99.90;;;;;;5056995;28;19959;-63
2024/02/04 01:43:38;;;;;;;;;;;3.80;99.90;;;;;;5052841;28;20023;-59
2024/02/04 01:46:04;;;;;;;;;;;3.80;99.90;;;;;;5057777;28;19978;-61
2024/02/04 01:48:35;;;;;;;;;;;3.80;99.90;;;;;;5055804;28;19925;-59
2024/02/04 01:51:03;;;;;;;;;;;3.80;99.90;;;;;;5054125;28;20305;-65
2024/02/04 01:53:32;;;;;;;;;;;3.80;99.90;;;;;;5052038;28;19924;-60
2024/02/04 01:55:59;;;;;;;;;;;3.80;99.90;;;;;;5051317;28;20357;-63
2024/02/04 01:58:26;;;;;;;;;;;3.80;99.90;;;;;;5051629;28;19928;-59
2024/02/04 02:00:53;;;;;;;;;;;3.80;99.90;;;;;;5051353;28;19939;-61
2024/02/04 02:03:21;;;;;;;;;;;3.80;99.90;;;;;;5072041;28;20349;-60
2024/02/04 02:05:48;;;;;;;;;;;3.80;99.90;;;;;;5053124;28;19968;-61
2024/02/04 02:08:15;;;;;;;;;;;3.80;99.90;;;;;;5072033;28;19963;-60
2024/02/04 02:10:46;;;;;;;;;;;3.80;99.90;;;;;;5050028;28;19925;-73
2024/02/04 02:13:24;;;;;;;;;;;3.80;99.90;;;;;;5067599;28;19925;-61
2024/02/04 02:15:52;;;;;;;;;;;3.80;99.90;;;;;;5054579;28;19928;-59
2024/02/04 02:18:29;;;;;;;;;;;3.80;99.90;;;;;;5059004;28;19931;-65
2024/02/04 02:21:08;;;;;;;;;;;3.80;99.90;;;;;;5053009;28;19932;-63
2024/02/04 02:23:36;;;;;;;;;;;3.80;99.90;;;;;;5054828;28;20023;-61
2024/02/04 02:26:04;;;;;;;;;;;3.80;99.90;;;;;;5050846;28;19924;-59
2024/02/04 02:28:30;;;;;;;;;;;3.80;99.90;;;;;;5061453;28;19928;-60
2024/02/04 02:30:57;;;;;;;;;;;3.80;99.90;;;;;;5050872;28;19955;-62
2024/02/04 02:33:24;;;;;;;;;;;3.70;99.90;;;;;;5057920;28;19977;-59
2024/02/04 02:35:56;;;;;;;;;;;3.70;99.90;;;;;;5054196;28;19937;-69
2024/02/04 02:38:32;;;;;;;;;;;3.70;99.90;;;;;;5056683;28;19931;-59
2024/02/04 02:41:02;;;;;;;;;;;3.70;99.90;;;;;;5062085;28;20455;-63
2024/02/04 02:43:29;;;;;;;;;;;3.60;99.90;;;;;;5057897;28;19933;-62
2024/02/04 02:45:56;;;;;;;;;;;3.60;99.90;;;;;;5079816;28;19928;-60
2024/02/04 02:48:24;;;;;;;;;;;3.60;99.90;;;;;;5052577;28;19924;-59
2024/02/04 02:50:51;;;;;;;;;;;3.70;99.90;;;;;;5057499;28;19975;-69
2024/02/04 02:53:19;;;;;;;;;;;3.60;99.90;;;;;;5053775;28;19925;-64
2024/02/04 02:55:46;;;;;;;;;;;3.60;99.90;;;;;;5058985;28;19968;-68
2024/02/04 02:58:14;;;;;;;;;;;3.60;99.90;;;;;;5054339;28;19925;-61
2024/02/04 03:00:41;;;;;;;;;;;3.60;99.90;;;;;;5053943;28;19932;-63
2024/02/04 03:03:08;;;;;;;;;;;3.60;99.90;;;;;;5050874;28;20450;-63
2024/02/04 03:05:35;;;;;;;;;;;3.60;99.90;;;;;;5053429;28;19928;-62
2024/02/04 03:08:02;;;;;;;;;;;3.60;99.90;;;;;;5049483;28;20397;-65
2024/02/04 03:10:28;;;;;;;;;;;3.50;99.90;;;;;;5053422;28;19932;-68
2024/02/04 03:12:56;;;;;;;;;;;3.50;99.90;;;;;;5050111;28;19925;-62
2024/02/04 03:15:23;;;;;;;;;;;3.50;99.90;;;;;;5051037;28;19925;-74
2024/02/04 03:17:50;;;;;;;;;;;3.50;99.90;;;;;;5055296;28;19965;-61
2024/02/04 03:20:17;;;;;;;;;;;3.50;99.90;;;;;;5054174;28;19928;-62
2024/02/04 03:22:45;;;;;;;;;;;3.40;99.90;;;;;;5053737;28;20305;-64
2024/02/04 03:25:12;;;;;;;;;;;3.40;99.90;;;;;;5049051;28;20050;-64
2024/02/04 03:27:40;;;;;;;;;;;3.40;99.90;;;;;;5065960;28;19947;-60
2024/02/04 03:30:07;;;;;;;;;;;3.40;99.90;;;;;;5050258;28;19928;-64
2024/02/04 03:32:34;;;;;;;;;;;3.40;99.90;;;;;;5036144;28;20267;-63
2024/02/04 03:35:02;;;;;;;;;;;3.40;99.90;;;;;;5032248;28;20015;-62
2024/02/04 03:37:29;;;;;;;;;;;3.40;99.90;;;;;;5065555;28;19935;-60
2024/02/04 03:39:56;;;;;;;;;;;3.40;99.90;;;;;;5050466;28;20508;-62
2024/02/04 03:42:24;;;;;;;;;;;3.40;99.90;;;;;;5047470;28;19931;-63
2024/02/04 03:44:50;;;;;;;;;;;3.40;99.90;;;;;;5047426;28;19925;-69
2024/02/04 03:47:17;;;;;;;;;;;3.40;99.90;;;;;;5050503;28;19925;-64
2024/02/04 03:49:44;;;;;;;;;;;3.40;99.90;;;;;;5029186;28;19924;-62
2024/02/04 03:52:11;;;;;;;;;;;3.50;99.90;;;;;;5047868;28;19978;-62
2024/02/04 03:54:38;;;;;;;;;;;3.50;99.90;;;;;;5053415;28;19990;-59
2024/02/04 03:57:05;;;;;;;;;;;3.50;99.90;;;;;;5047346;28;19974;-61
2024/02/04 03:59:33;;;;;;;;;;;3.50;99.90;;;;;;5045627;28;20582;-63
2024/02/04 04:01:59;;;;;;;;;;;3.50;99.90;;;;;;5053436;28;20502;-60
2024/02/04 04:04:26;;;;;;;;;;;3.50;99.90;;;;;;5049858;28;19964;-61
2024/02/04 04:06:54;;;;;;;;;;;3.50;99.90;;;;;;5051596;28;20414;-60
2024/02/04 04:09:21;;;;;;;;;;;3.50;99.90;;;;;;5050142;28;19935;-59
2024/02/04 04:11:48;;;;;;;;;;;3.50;99.90;;;;;;5051268;28;19935;-62
2024/02/04 04:14:15;;;;;;;;;;;3.50;99.90;;;;;;5057923;28;19967;-64
2024/02/04 04:16:41;;;;;;;;;;;3.50;99.90;;;;;;5053204;28;19968;-73
2024/02/04 04:19:08;;;;;;;;;;;3.50;99.90;;;;;;5053276;28;19928;-62
2024/02/04 04:21:37;;;;;;;;;;;3.50;99.90;;;;;;5057166;28;19932;-61
2024/02/04 04:24:04;;;;;;;;;;;3.50;99.90;;;;;;5058492;28;19925;-63
2024/02/04 04:26:31;;;;;;;;;;;3.50;99.90;;;;;;5055973;28;19924;-60
2024/02/04 04:28:58;;;;;;;;;;;3.50;99.90;;;;;;5053522;28;19960;-60
2024/02/04 04:31:25;;;;;;;;;;;3.50;99.90;;;;;;5050227;28;19936;-64
2024/02/04 04:33:53;;;;;;;;;;;3.50;99.90;;;;;;5054761;28;19925;-70
2024/02/04 04:36:20;;;;;;;;;;;3.50;99.90;;;;;;5047912;28;20036;-60
2024/02/04 04:38:50;;;;;;;;;;;3.50;99.90;;;;;;5054544;28;19932;-67
2024/02/04 04:41:17;;;;;;;;;;;3.50;99.90;;;;;;5056641;28;19931;-67
2024/02/04 04:43:43;;;;;;;;;;;3.50;99.90;;;;;;5048901;28;19932;-62
2024/02/04 04:46:10;;;;;;;;;;;3.60;99.90;;;;;;5050748;28;19928;-60
2024/02/04 04:48:37;;;;;;;;;;;3.50;99.90;;;;;;5053538;28;19929;-63
2024/02/04 04:51:04;;;;;;;;;;;3.50;99.90;;;;;;5054066;28;19924;-60
2024/02/04 04:53:31;;;;;;;;;;;3.50;99.90;;;;;;5053730;28;19956;-62
2024/02/04 04:55:58;;;;;;;;;;;3.50;99.90;;;;;;5053301;28;20385;-66
2024/02/04 04:58:25;;;;;;;;;;;3.40;99.90;;;;;;5053590;28;19936;-62
2024/02/04 05:00:52;;;;;;;;;;;3.40;99.90;;;;;;5057421;28;19972;-62
2024/02/04 05:03:19;;;;;;;;;;;3.40;99.90;;;;;;5046859;28;19978;-61
2024/02/04 05:05:46;;;;;;;;;;;3.40;99.90;;;;;;5048485;28;20031;-61
2024/02/04 05:08:14;;;;;;;;;;;3.40;99.90;;;;;;5051638;28;19959;-64
2024/02/04 05:10:41;;;;;;;;;;;3.40;99.90;;;;;;5047901;28;19933;-64
2024/02/04 05:13:07;;;;;;;;;;;3.30;99.90;;;;;;5053573;28;20275;-59
2024/02/04 05:15:35;;;;;;;;;;;3.30;99.90;;;;;;5054275;28;19933;-60
2024/02/04 05:18:02;;;;;;;;;;;3.30;99.90;;;;;;5048590;28;20008;-62
2024/02/04 05:20:28;;;;;;;;;;;3.20;99.90;;;;;;5051389;28;19924;-61
2024/02/04 05:22:57;;;;;;;;;;;3.30;99.90;;;;;;5058587;28;19929;-61
2024/02/04 05:25:25;;;;;;;;;;;3.20;99.90;;;;;;5061170;28;19994;-62
2024/02/04 05:27:52;;;;;;;;;;;3.20;99.90;;;;;;5059913;28;19929;-60
2024/02/04 05:30:19;;;;;;;;;;;3.10;99.90;;;;;;5059547;28;20401;-67
2024/02/04 05:32:45;;;;;;;;;;;3.10;99.90;;;;;;5048223;28;20310;-62
2024/02/04 05:35:12;;;;;;;;;;;3.10;99.90;;;;;;5051182;28;20339;-66
2024/02/04 05:37:40;;;;;;;;;;;3.10;99.90;;;;;;5048207;28;19925;-59
2024/02/04 05:40:07;;;;;;;;;;;3.10;99.90;;;;;;5053164;28;19925;-60
2024/02/04 05:42:35;;;;;;;;;;;3.10;99.90;;;;;;5046741;28;19929;-62
2024/02/04 05:45:02;;;;;;;;;;;3.10;99.90;;;;;;5053322;28;19933;-59
2024/02/04 05:47:29;;;;;;;;;;;3.10;99.90;;;;;;5030804;28;20398;-60
2024/02/04 05:49:56;;;;;;;;;;;3.10;99.90;;;;;;5047355;28;19932;-59
2024/02/04 05:52:23;;;;;;;;;;;3.00;99.90;;;;;;5043435;28;19936;-64
2024/02/04 05:54:50;;;;;;;;;;;3.10;99.90;;;;;;5047101;28;20023;-61
2024/02/04 05:57:17;;;;;;;;;;;3.00;99.90;;;;;;5054859;28;19929;-59
2024/02/04 05:59:44;;;;;;;;;;;3.00;99.90;;;;;;5049825;28;19956;-64
2024/02/04 06:02:11;;;;;;;;;;;3.00;99.90;;;;;;5041146;28;20479;-60
2024/02/04 06:04:39;;;;;;;;;;;3.00;99.90;;;;;;5052335;28;19928;-63
2024/02/04 06:07:06;;;;;;;;;;;3.00;99.90;;;;;;5058614;28;20008;-67
2024/02/04 06:09:33;;;;;;;;;;;3.00;99.90;;;;;;5060942;28;19925;-60
2024/02/04 06:12:00;;;;;;;;;;;3.00;99.90;;;;;;5060260;28;20341;-66
2024/02/04 06:14:27;;;;;;;;;;;3.00;99.90;;;;;;5056412;28;19932;-64
2024/02/04 06:16:54;;;;;;;;;;;3.00;99.90;;;;;;5053695;28;20289;-60
2024/02/04 06:19:20;;;;;;;;;;;3.00;99.90;;;;;;5059758;28;19971;-59
2024/02/04 06:21:50;;;;;;;;;;;3.00;99.90;;;;;;5052941;28;20197;-67
2024/02/04 06:24:19;;;;;;;;;;;3.00;99.90;;;;;;5053749;28;20338;-61
2024/02/04 06:26:46;;;;;;;;;;;3.00;99.90;;;;;;5057572;28;19928;-74
2024/02/04 06:29:13;;;;;;;;;;;3.00;99.90;;;;;;5058154;28;20023;-60
2024/02/04 06:31:43;;;;;;;;;;;3.00;99.90;;;;;;5050948;28;19925;-64
2024/02/04 06:34:10;;;;;;;;;;;2.90;99.90;;;;;;5051056;28;19968;-62
2024/02/04 06:36:37;;;;;;;;;;;3.00;99.90;;;;;;5056956;28;19989;-60
2024/02/04 06:39:04;;;;;;;;;;;2.90;99.90;;;;;;5059027;28;19970;-60
2024/02/04 06:41:34;;;;;;;;;;;3.00;99.90;;;;;;5054334;28;19935;-66
2024/02/04 06:44:02;;;;;;;;;;;2.90;99.90;;;;;;5052826;28;19940;-66
2024/02/04 06:46:29;;;;;;;;;;;3.00;99.90;;;;;;5052360;28;19928;-66
2024/02/04 06:48:56;;;;;;;;;;;3.00;99.90;;;;;;5054655;28;19968;-61
2024/02/04 06:51:23;;;;;;;;;;;3.00;99.90;;;;;;5055328;28;20027;-60
2024/02/04 06:53:50;;;;;;;;;;;3.00;99.90;;;;;;5063783;28;19937;-68
2024/02/04 06:56:17;;;;;;;;;;;3.00;99.90;;;;;;5051353;28;19924;-62
2024/02/04 06:58:44;;;;;;;;;;;2.90;99.90;;;;;;5053830;28;19971;-62
2024/02/04 07:01:11;;;;;;;;;;;3.00;99.90;;;;;;5049374;28;19936;-62
2024/02/04 07:03:38;;;;;;;;;;;3.00;99.90;;;;;;5053966;28;20289;-69
2024/02/04 07:06:05;;;;;;;;;;;3.00;99.90;;;;;;5056254;28;19925;-63
2024/02/04 07:08:32;;;;;;;;;;;2.90;99.90;;;;;;5048873;28;19967;-61
2024/02/04 07:10:59;;;;;;;;;;;3.00;99.90;;;;;;5051400;28;19968;-64
2024/02/04 07:13:26;;;;;;;;;;;3.00;99.90;;;;;;5045999;28;20421;-64
2024/02/04 07:15:54;;;;;;;;;;;3.00;99.90;;;;;;5053147;28;19951;-63
2024/02/04 07:18:21;;;;;;;;;;;3.00;99.90;;;;;;5052776;28;19979;-59
2024/02/04 07:20:48;;;;;;;;;;;3.00;99.90;;;;;;5051514;28;20290;-69
2024/02/04 07:23:15;;;;;;;;;;;3.00;99.90;;;;;;5052954;28;19950;-61
2024/02/04 07:25:42;;;;;;;;;;;3.00;99.90;;;;;;5052209;28;19986;-63
2024/02/04 07:28:09;;;;;;;;;;;3.00;99.90;;;;;;5053227;28;20484;-62
2024/02/04 07:30:36;;;;;;;;;;;3.00;99.90;;;;;;5052099;28;19968;-63
2024/02/04 07:33:03;;;;;;;;;;;3.00;99.90;;;;;;5067441;28;20007;-72
2024/02/04 07:35:30;;;;;;;;;;;3.10;99.90;;;;;;5049560;28;20481;-65
2024/02/04 07:37:57;;;;;;;;;;;3.00;99.90;;;;;;5049615;28;19971;-64
2024/02/04 07:40:23;;;;;;;;;;;3.00;99.90;;;;;;5046025;28;19929;-61
2024/02/04 07:42:50;;;;;;;;;;;3.00;99.90;;;;;;5051056;28;19990;-64
2024/02/04 07:45:17;;;;;;;;;;;3.00;99.90;;;;;;5060166;28;20315;-62
2024/02/04 07:47:44;;;;;;;;;;;3.00;99.90;;;;;;5046819;28;20006;-62
2024/02/04 07:50:11;;;;;;;;;;;3.00;99.90;;;;;;5054290;28;19979;-64
2024/02/04 07:52:38;;;;;;;;;;;3.00;99.90;;;;;;5047058;28;20333;-73
2024/02/04 07:55:09;;;;;;;;;;;3.00;99.90;;;;;;5054982;28;20126;-61
2024/02/04 07:57:36;;;;;;;;;;;3.10;99.90;;;;;;5051334;28;19928;-63
2024/02/04 08:00:06;;;;;;;;;;;3.10;99.90;;;;;;5045011;28;19925;-60
2024/02/04 08:02:38;;;;;;;;;;;3.10;99.90;;;;;;5050325;28;19999;-64
2024/02/04 08:05:05;;;;;;;;;;;3.10;99.90;;;;;;5046995;28;20378;-62
2024/02/04 08:07:32;;;;;;;;;;;3.10;99.90;;;;;;5046968;28;20711;-60
2024/02/04 08:09:59;;;;;;;;;;;3.10;99.90;;;;;;5045740;28;19925;-60
2024/02/04 08:12:26;;;;;;;;;;;3.10;99.90;;;;;;5048502;28;20375;-63
2024/02/04 08:14:52;;;;;;;;;;;3.10;99.90;;;;;;5055975;28;20324;-67
2024/02/04 08:17:19;;;;;;;;;;;3.10;99.90;;;;;;5050667;28;20007;-63
2024/02/04 08:19:46;;;;;;;;;;;3.20;99.90;;;;;;5052102;28;19971;-63
2024/02/04 08:22:13;;;;;;;;;;;3.20;99.90;;;;;;5049594;28;19931;-69
2024/02/04 08:24:40;;;;;;;;;;;3.20;99.90;;;;;;5048915;28;19929;-69
2024/02/04 08:27:07;;;;;;;;;;;3.20;99.90;;;;;;5047844;28;20023;-60
2024/02/04 08:29:34;;;;;;;;;;;3.20;99.90;;;;;;5055165;28;20044;-62
2024/02/04 08:32:02;;;;;;;;;;;3.20;99.90;;;;;;5053315;28;19960;-71
2024/02/04 08:34:29;;;;;;;;;;;3.30;99.90;;;;;;5052587;28;20072;-60
2024/02/04 08:36:56;;;;;;;;;;;3.30;99.90;;;;;;5049791;28;21575;-63
2024/02/04 08:39:23;;;;;;;;;;;3.30;99.90;;;;;;5051457;28;19925;-70
2024/02/04 08:41:49;;;;;;;;;;;3.30;99.90;;;;;;5052800;28;19924;-60
2024/02/04 08:44:16;;;;;;;;;;;3.40;99.90;;;;;;5053169;28;19925;-61
2024/02/04 08:47:01;;;;;;;;;;;3.40;99.90;;;;;;5047716;28;20870;-62
2024/02/04 08:49:29;;;;;;;;;;;3.40;99.90;;;;;;5026296;28;20302;-62
2024/02/04 08:51:56;;;;;;;;;;;3.40;99.90;;;;;;5049182;28;19924;-63
2024/02/04 08:54:23;;;;;;;;;;;3.40;99.90;;;;;;5051130;28;19932;-64
2024/02/04 08:56:49;;;;;;;;;;;3.40;99.90;;;;;;5049498;28;19960;-60
2024/02/04 08:59:16;;;;;;;;;;;3.40;99.90;;;;;;5050659;28;20010;-64
2024/02/04 09:01:43;;;;;;;;;;;3.40;99.90;;;;;;5056689;28;20469;-63
2024/02/04 09:04:10;;;;;;;;;;;3.40;99.90;;;;;;5050685;28;19924;-63
2024/02/04 09:06:36;;;;;;;;;;;3.40;99.90;;;;;;5051057;28;19924;-61
2024/02/04 09:09:03;;;;;;;;;;;3.40;99.90;;;;;;5055655;28;20349;-62
2024/02/04 09:11:30;;;;;;;;;;;3.40;99.90;;;;;;5052646;28;19928;-72
2024/02/04 09:13:57;;;;;;;;;;;3.50;99.90;;;;;;5056653;28;19925;-68
2024/02/04 09:16:24;;;;;;;;;;;3.50;99.90;;;;;;5052092;28;19982;-61
2024/02/04 09:18:51;;;;;;;;;;;3.50;99.90;;;;;;5053381;28;19936;-67
2024/02/04 09:21:18;;;;;;;;;;;3.50;99.90;;;;;;5053959;28;19970;-60
2024/02/04 09:23:46;;;;;;;;;;;3.50;99.90;;;;;;5056267;28;19979;-63
2024/02/04 09:26:13;;;;;;;;;;;3.50;99.90;;;;;;5060554;28;19985;-70
2024/02/04 09:28:45;;;;;;;;;;;3.60;99.90;;;;;;5053097;28;20715;-63
2024/02/04 09:31:11;;;;;;;;;;;3.50;99.90;;;;;;5055629;28;19932;-60
2024/02/04 09:33:40;;;;;;;;;;;3.50;99.90;;;;;;5063035;28;20371;-60
2024/02/04 09:36:07;;;;;;;;;;;3.50;99.90;;;;;;5059569;28;20019;-60
2024/02/04 09:38:34;;;;;;;;;;;3.50;99.90;;;;;;5053197;28;19925;-60
2024/02/04 09:41:04;;;;;;;;;;;3.50;99.90;;;;;;5061475;28;20128;-61
2024/02/04 09:43:31;;;;;;;;;;;3.40;99.90;;;;;;5053013;28;19996;-66
2024/02/04 09:46:00;;;;;;;;;;;3.40;99.90;;;;;;5049988;28;19931;-60
2024/02/04 09:48:31;;;;;;;;;;;3.40;99.90;;;;;;5049634;28;19925;-62
2024/02/04 09:50:58;;;;;;;;;;;3.40;99.90;;;;;;5053828;28;20020;-60
2024/02/04 09:53:35;;;;;;;;;;;3.40;99.90;;;;;;5058027;28;20023;-66
2024/02/04 09:56:03;;;;;;;;;;;3.40;99.90;;;;;;5047555;28;20019;-68
2024/02/04 09:58:30;;;;;;;;;;;3.30;99.90;;;;;;5049880;28;19951;-67
2024/02/04 10:00:59;;;;;;;;;;;3.30;99.90;;;;;;5058499;28;19932;-61
2024/02/04 10:03:26;;;;;;;;;;;3.30;99.90;;;;;;5055816;28;19929;-61
2024/02/04 10:05:53;;;;;;;;;;;3.30;99.90;;;;;;5054177;28;20284;-68
2024/02/04 10:08:20;;;;;;;;;;;3.30;99.90;;;;;;5049712;28;20696;-60
2024/02/04 10:10:48;;;;;;;;;;;3.30;99.90;;;;;;5061062;28;19928;-67
2024/02/04 10:13:15;;;;;;;;;;;3.30;99.90;;;;;;5055471;28;19926;-61
2024/02/04 10:15:42;;;;;;;;;;;3.30;99.90;;;;;;5050375;28;19933;-61
2024/02/04 10:18:09;;;;;;;;;;;3.30;99.90;;;;;;5053407;28;19929;-66
2024/02/04 10:20:36;;;;;;;;;;;3.20;99.90;;;;;;5051638;28;20370;-59
2024/02/04 10:23:02;;;;;;;;;;;3.20;99.90;;;;;;5053489;28;19959;-60
2024/02/04 10:25:29;;;;;;;;;;;3.20;99.90;;;;;;5053508;28;19974;-62
2024/02/04 10:27:57;;;;;;;;;;;3.30;99.90;;;;;;5057302;28;20016;-61
2024/02/04 10:30:24;;;;;;;;;;;3.30;99.90;;;;;;5053077;28;19929;-63
2024/02/04 10:32:52;;;;;;;;;;;3.20;99.90;;;;;;5055835;28;19928;-64
2024/02/04 10:35:23;;;;;;;;;;;3.20;99.90;;;;;;5052113;28;20015;-65
2024/02/04 10:37:50;;;;;;;;;;;3.20;99.90;;;;;;5046121;28;19928;-65
2024/02/04 10:40:18;;;;;;;;;;;3.30;99.90;;;;;;5050629;28;19925;-63
2024/02/04 10:42:45;;;;;;;;;;;3.30;99.90;;;;;;5050546;28;20043;-69
2024/02/04 10:45:14;;;;;;;;;;;3.30;99.90;;;;;;5049618;28;20031;-63
2024/02/04 10:47:41;;;;;;;;;;;3.20;99.90;;;;;;5048736;28;19986;-66
2024/02/04 10:50:08;;;;;;;;;;;3.20;99.90;;;;;;5051321;28;19936;-63
2024/02/04 10:52:42;;;;;;;;;;;3.20;99.90;;;;;;5051505;28;19924;-62
2024/02/04 10:55:10;;;;;;;;;;;3.20;99.90;;;;;;5049440;28;19938;-60
2024/02/04 10:57:38;;;;;;;;;;;3.20;99.90;;;;;;5051493;28;19928;-64
2024/02/04 11:00:08;;;;;;;;;;;3.20;99.90;;;;;;5046690;28;20015;-61
2024/02/04 11:02:36;;;;;;;;;;;3.20;99.90;;;;;;5050991;28;19994;-61
2024/02/04 11:05:04;;;;;;;;;;;3.20;99.90;;;;;;5051274;28;20031;-64
2024/02/04 11:07:34;;;;;;;;;;;3.20;99.90;;;;;;5050179;28;20047;-59
2024/02/04 11:10:02;;;;;;;;;;;3.10;99.90;;;;;;5043247;28;19983;-65
2024/02/04 11:12:30;;;;;;;;;;;3.10;99.90;;;;;;5051022;28;19925;-60
2024/02/04 11:14:59;;;;;;;;;;;3.10;99.90;;;;;;5055464;28;19925;-68
2024/02/04 11:17:35;;;;;;;;;;;3.00;99.90;;;;;;5054659;28;20557;-62
2024/02/04 11:20:03;;;;;;;;;;;3.00;99.90;;;;;;5056537;28;19932;-72
2024/02/04 11:22:49;;;;;;;;;;;3.00;99.90;;;;;;5053401;28;19925;-60
2024/02/04 11:25:16;;;;;;;;;;;3.00;99.90;;;;;;5049555;28;20398;-65
2024/02/04 11:27:44;;;;;;;;;;;2.90;99.90;;;;;;5050882;28;20286;-65
2024/02/04 11:30:11;;;;;;;;;;;2.80;99.90;;;;;;5050954;28;20488;-60
2024/02/04 11:32:39;;;;;;;;;;;2.70;99.90;;;;;;5056541;28;19999;-69
2024/02/04 11:35:07;;;;;;;;;;;2.70;99.90;;;;;;5052054;28;19953;-60
2024/02/04 11:37:35;;;;;;;;;;;2.70;99.90;;;;;;5052146;28;19925;-60
2024/02/04 11:40:04;;;;;;;;;;;2.70;99.90;;;;;;5054124;28;20047;-67
2024/02/04 11:42:31;;;;;;;;;;;2.80;99.90;;;;;;5056128;28;19925;-63
2024/02/04 11:45:12;;;;;;;;;;;2.90;99.90;;;;;;5056719;28;19972;-66
2024/02/04 11:47:39;;;;;;;;;;;2.90;99.90;;;;;;5056792;28;20395;-63
2024/02/04 11:50:07;;;;;;;;;;;2.90;99.90;;;;;;5049373;28;20025;-61
2024/02/04 11:52:34;;;;;;;;;;;3.00;99.90;;;;;;5051232;28;20019;-64
2024/02/04 11:55:01;;;;;;;;;;;3.10;99.90;;;;;;5055554;28;19928;-63
2024/02/04 11:57:28;;;;;;;;;;;3.20;99.90;;;;;;5054810;28;19932;-59
2024/02/04 11:59:55;;;;;;;;;;;3.20;99.90;;;;;;5056912;28;20011;-72
2024/02/04 12:02:22;;;;;;;;;;;3.30;99.90;;;;;;5034431;28;19978;-60
2024/02/04 12:04:50;;;;;;;;;;;3.40;99.90;;;;;;5057986;28;19971;-63
2024/02/04 12:07:17;;;;;;;;;;;3.40;99.90;;;;;;5050986;28;19924;-62
2024/02/04 12:09:44;;;;;;;;;;;3.40;99.90;;;;;;5052561;28;19925;-62
2024/02/04 12:12:11;;;;;;;;;;;3.40;99.90;;;;;;5051547;28;19936;-60
2024/02/04 12:14:39;;;;;;;;;;;3.40;99.90;;;;;;5056858;28;19932;-59
2024/02/04 12:17:08;;;;;;;;;;;3.50;99.90;;;;;;5050423;28;20436;-64
2024/02/04 12:19:35;;;;;;;;;;;3.50;99.90;;;;;;5055467;28;19983;-60
2024/02/04 12:22:09;;;;;;;;;;;3.50;99.90;;;;;;5056127;28;19924;-60
2024/02/04 12:24:37;;;;;;;;;;;3.50;99.90;;;;;;5054642;28;19925;-64
2024/02/04 12:27:04;;;;;;;;;;;3.50;99.90;;;;;;5056288;28;19924;-60
2024/02/04 12:29:32;;;;;;;;;;;3.50;99.90;;;;;;5051252;28;19990;-60
2024/02/04 12:31:59;;;;;;;;;;;3.50;99.90;;;;;;5048804;28;19925;-61
2024/02/04 12:34:26;;;;;;;;;;;3.50;99.90;;;;;;5047901;28;20267;-61
2024/02/04 12:37:00;;;;;;;;;;;3.50;99.90;;;;;;5052920;28;19990;-64
2024/02/04 12:39:28;;;;;;;;;;;3.60;99.90;;;;;;5052086;28;19998;-63
2024/02/04 12:41:54;;;;;;;;;;;3.60;99.90;;;;;;5048366;28;19998;-62
2024/02/04 12:44:22;;;;;;;;;;;3.60;99.90;;;;;;5051510;28;19951;-61
2024/02/04 12:46:52;;;;;;;;;;;3.60;99.90;;;;;;5050970;28;19929;-63
2024/02/04 12:49:20;;;;;;;;;;;3.60;99.90;;;;;;5052945;28;19936;-67
2024/02/04 12:51:48;;;;;;;;;;;3.60;99.90;;;;;;5047844;28;20339;-63
2024/02/04 12:54:15;;;;;;;;;;;3.60;99.90;;;;;;5048890;28;19925;-65
2024/02/04 12:56:49;;;;;;;;;;;3.60;99.90;;;;;;5054185;28;19960;-64
2024/02/04 12:59:31;;;;;;;;;;;3.60;99.90;;;;;;5047262;28;19933;-63
2024/02/04 13:02:00;;;;;;;;;;;3.50;99.90;;;;;;5052142;28;19935;-63
2024/02/04 13:04:33;;;;;;;;;;;3.50;99.90;;;;;;5058466;28;20336;-60
2024/02/04 13:07:00;;;;;;;;;;;3.50;99.90;;;;;;5050988;28;20279;-69
2024/02/04 13:09:27;;;;;;;;;;;3.50;99.90;;;;;;5052604;28;19935;-60
2024/02/04 13:12:02;;;;;;;;;;;3.50;99.90;;;;;;5057903;28;19932;-66
2024/02/04 13:14:29;;;;;;;;;;;3.50;99.90;;;;;;5047006;28;19929;-62
2024/02/04 13:16:56;;;;;;;;;;;3.50;99.90;;;;;;5052924;28;19928;-65
2024/02/04 13:19:22;;;;;;;;;;;3.50;99.90;;;;;;5045749;28;19925;-64
2024/02/04 13:21:49;;;;;;;;;;;3.50;99.90;;;;;;5058390;28;19932;-62
2024/02/04 13:24:16;;;;;;;;;;;3.50;99.90;;;;;;5049692;28;19959;-69
2024/02/04 13:26:43;;;;;;;;;;;3.50;99.90;;;;;;5057397;28;19928;-65
2024/02/04 13:29:10;;;;;;;;;;;3.50;99.90;;;;;;5047895;28;19928;-61
2024/02/04 13:31:36;;;;;;;;;;;3.50;99.90;;;;;;5051996;28;20429;-74
2024/02/04 13:34:04;;;;;;;;;;;3.50;99.90;;;;;;5049694;28;19925;-59
2024/02/04 13:36:31;;;;;;;;;;;3.50;99.90;;;;;;5050427;28;20333;-62
2024/02/04 13:38:58;;;;;;;;;;;3.60;99.90;;;;;;5069342;28;19932;-65
2024/02/04 13:41:25;;;;;;;;;;;3.60;99.90;;;;;;5064067;28;20009;-63
2024/02/04 13:43:52;;;;;;;;;;;3.60;99.90;;;;;;5056032;28;19924;-65
2024/02/04 13:46:18;;;;;;;;;;;3.50;99.90;;;;;;5057857;28;19968;-66
2024/02/04 13:48:45;;;;;;;;;;;3.30;99.90;;;;;;5055284;28;19997;-67
2024/02/04 13:51:12;;;;;;;;;;;2.90;99.90;;;;;;5058489;28;19935;-63
2024/02/04 13:53:40;;;;;;;;;;;2.80;99.90;;;;;;5062250;28;20010;-61
2024/02/04 13:56:07;;;;;;;;;;;2.80;99.90;;;;;;5055068;28;19931;-60
2024/02/04 13:58:34;;;;;;;;;;;2.70;99.90;;;;;;5056726;28;20683;-69
2024/02/04 14:01:01;;;;;;;;;;;2.70;99.90;;;;;;5052887;28;20011;-64
2024/02/04 14:03:28;;;;;;;;;;;2.60;99.90;;;;;;5056698;28;19964;-63
2024/02/04 14:05:55;;;;;;;;;;;2.60;99.90;;;;;;5058877;28;19975;-72
2024/02/04 14:08:22;;;;;;;;;;;2.60;99.90;;;;;;5052866;28;20341;-64
2024/02/04 14:10:49;;;;;;;;;;;2.60;99.90;;;;;;5054412;28;19929;-62
2024/02/04 14:13:15;;;;;;;;;;;2.50;99.90;;;;;;5057178;28;20017;-69
2024/02/04 14:15:42;;;;;;;;;;;2.40;99.90;;;;;;5052123;28;19987;-63
2024/02/04 14:18:09;;;;;;;;;;;2.40;99.90;;;;;;5052769;28;19928;-62
2024/02/04 14:20:36;;;;;;;;;;;2.40;99.90;;;;;;5056425;28;19936;-63
2024/02/04 14:23:03;;;;;;;;;;;2.40;99.90;;;;;;5050243;28;19982;-63
2024/02/04 14:25:30;;;;;;;;;;;2.40;99.90;;;;;;5053558;28;21807;-61
2024/02/04 14:27:57;;;;;;;;;;;2.40;99.90;;;;;;5063033;28;20464;-65
2024/02/04 14:30:24;;;;;;;;;;;2.40;99.90;;;;;;5052762;28;20386;-64
2024/02/04 14:32:50;;;;;;;;;;;2.40;99.90;;;;;;5056367;28;19956;-60